sensor_id;sensor_type;location;lat;lon;timestamp;P1;durP1;ratioP1;P2;durP2;ratioP2
40635;SDS011;26642;55.766;37.828;2023-04-08T00:02:16;4.90;;;3.40;;
40635;SDS011;26642;55.766;37.828;2023-04-08T00:04:42;5.95;;;2.95;;
40635;SDS011;26642;55.766;37.828;2023-04-08T00:07:08;5.57;;;2.83;;
40635;SDS011;26642;55.766;37.828;2023-04-08T00:09:33;6.18;;;3.17;;
40635;SDS011;26642;55.766;37.828;2023-04-08T00:11:59;5.30;;;3.40;;
40635;SDS011;26642;55.766;37.828;2023-04-08T00:14:26;4.70;;;2.90;;
40635;SDS011;26642;55.766;37.828;2023-04-08T00:16:52;4.30;;;2.60;;
40635;SDS011;26642;55.766;37.828;2023-04-08T00:19:18;8.02;;;3.13;;
40635;SDS011;26642;55.766;37.828;2023-04-08T00:21:44;7.32;;;3.08;;
40635;SDS011;26642;55.766;37.828;2023-04-08T00:24:10;3.72;;;2.65;;
40635;SDS011;26642;55.766;37.828;2023-04-08T00:26:36;8.45;;;3.00;;
40635;SDS011;26642;55.766;37.828;2023-04-08T00:29:02;3.45;;;2.72;;
40635;SDS011;26642;55.766;37.828;2023-04-08T00:31:28;7.72;;;3.47;;
40635;SDS011;26642;55.766;37.828;2023-04-08T00:33:53;4.95;;;2.65;;
40635;SDS011;26642;55.766;37.828;2023-04-08T00:36:20;4.18;;;2.75;;
40635;SDS011;26642;55.766;37.828;2023-04-08T00:38:46;3.80;;;2.60;;
40635;SDS011;26642;55.766;37.828;2023-04-08T00:41:12;4.10;;;2.35;;
40635;SDS011;26642;55.766;37.828;2023-04-08T00:43:38;3.58;;;2.78;;
40635;SDS011;26642;55.766;37.828;2023-04-08T00:46:04;5.65;;;2.78;;
40635;SDS011;26642;55.766;37.828;2023-04-08T00:48:30;5.45;;;2.70;;
40635;SDS011;26642;55.766;37.828;2023-04-08T00:50:57;8.45;;;3.10;;
40635;SDS011;26642;55.766;37.828;2023-04-08T00:53:23;5.03;;;2.85;;
40635;SDS011;26642;55.766;37.828;2023-04-08T00:55:49;6.97;;;2.92;;
40635;SDS011;26642;55.766;37.828;2023-04-08T00:58:15;3.97;;;2.80;;
40635;SDS011;26642;55.766;37.828;2023-04-08T01:00:45;5.03;;;2.85;;
40635;SDS011;26642;55.766;37.828;2023-04-08T01:03:38;5.30;;;3.13;;
40635;SDS011;26642;55.766;37.828;2023-04-08T01:06:15;6.32;;;2.95;;
40635;SDS011;26642;55.766;37.828;2023-04-08T01:09:18;5.00;;;3.03;;
40635;SDS011;26642;55.766;37.828;2023-04-08T01:11:48;4.78;;;2.97;;
40635;SDS011;26642;55.766;37.828;2023-04-08T01:14:16;6.45;;;3.03;;
40635;SDS011;26642;55.766;37.828;2023-04-08T01:16:46;4.22;;;2.60;;
40635;SDS011;26642;55.766;37.828;2023-04-08T01:19:23;6.20;;;3.05;;
40635;SDS011;26642;55.766;37.828;2023-04-08T01:21:53;7.32;;;3.20;;
40635;SDS011;26642;55.766;37.828;2023-04-08T01:24:44;6.40;;;2.92;;
40635;SDS011;26642;55.766;37.828;2023-04-08T01:27:11;4.85;;;2.70;;
40635;SDS011;26642;55.766;37.828;2023-04-08T01:29:38;6.85;;;3.40;;
40635;SDS011;26642;55.766;37.828;2023-04-08T01:32:06;5.35;;;2.97;;
40635;SDS011;26642;55.766;37.828;2023-04-08T01:34:33;5.93;;;2.90;;
40635;SDS011;26642;55.766;37.828;2023-04-08T01:36:59;5.80;;;3.22;;
40635;SDS011;26642;55.766;37.828;2023-04-08T01:39:27;5.35;;;3.00;;
40635;SDS011;26642;55.766;37.828;2023-04-08T01:41:54;6.97;;;3.20;;
40635;SDS011;26642;55.766;37.828;2023-04-08T01:44:23;5.47;;;2.45;;
40635;SDS011;26642;55.766;37.828;2023-04-08T01:46:50;6.53;;;2.80;;
40635;SDS011;26642;55.766;37.828;2023-04-08T01:49:18;6.40;;;2.75;;
40635;SDS011;26642;55.766;37.828;2023-04-08T01:51:45;4.28;;;2.92;;
40635;SDS011;26642;55.766;37.828;2023-04-08T01:54:12;7.75;;;2.83;;
40635;SDS011;26642;55.766;37.828;2023-04-08T01:56:40;9.27;;;3.30;;
40635;SDS011;26642;55.766;37.828;2023-04-08T01:59:09;6.18;;;2.90;;
40635;SDS011;26642;55.766;37.828;2023-04-08T02:01:38;5.80;;;2.80;;
40635;SDS011;26642;55.766;37.828;2023-04-08T02:04:05;5.88;;;2.97;;
40635;SDS011;26642;55.766;37.828;2023-04-08T02:06:31;8.68;;;3.30;;
40635;SDS011;26642;55.766;37.828;2023-04-08T02:08:58;9.18;;;3.40;;
40635;SDS011;26642;55.766;37.828;2023-04-08T02:11:25;7.05;;;3.35;;
40635;SDS011;26642;55.766;37.828;2023-04-08T02:13:53;7.65;;;3.53;;
40635;SDS011;26642;55.766;37.828;2023-04-08T02:16:21;7.03;;;3.60;;
40635;SDS011;26642;55.766;37.828;2023-04-08T02:22:22;6.13;;;3.20;;
40635;SDS011;26642;55.766;37.828;2023-04-08T02:25:04;9.00;;;3.75;;
40635;SDS011;26642;55.766;37.828;2023-04-08T02:27:34;8.18;;;3.50;;
40635;SDS011;26642;55.766;37.828;2023-04-08T02:30:04;8.52;;;3.65;;
40635;SDS011;26642;55.766;37.828;2023-04-08T02:32:32;6.55;;;3.25;;
40635;SDS011;26642;55.766;37.828;2023-04-08T02:35:02;10.75;;;4.40;;
40635;SDS011;26642;55.766;37.828;2023-04-08T02:37:30;10.95;;;3.83;;
40635;SDS011;26642;55.766;37.828;2023-04-08T02:39:56;6.85;;;3.53;;
40635;SDS011;26642;55.766;37.828;2023-04-08T02:42:24;6.05;;;3.42;;
40635;SDS011;26642;55.766;37.828;2023-04-08T02:44:51;7.35;;;3.78;;
40635;SDS011;26642;55.766;37.828;2023-04-08T02:47:17;10.18;;;4.03;;
40635;SDS011;26642;55.766;37.828;2023-04-08T02:49:43;9.52;;;4.32;;
40635;SDS011;26642;55.766;37.828;2023-04-08T02:52:11;8.68;;;4.40;;
40635;SDS011;26642;55.766;37.828;2023-04-08T02:54:37;7.47;;;3.80;;
40635;SDS011;26642;55.766;37.828;2023-04-08T02:57:02;8.55;;;4.05;;
40635;SDS011;26642;55.766;37.828;2023-04-08T02:59:28;8.52;;;4.18;;
40635;SDS011;26642;55.766;37.828;2023-04-08T03:01:55;5.82;;;3.92;;
40635;SDS011;26642;55.766;37.828;2023-04-08T03:04:21;8.73;;;4.68;;
40635;SDS011;26642;55.766;37.828;2023-04-08T03:06:46;8.50;;;4.43;;
40635;SDS011;26642;55.766;37.828;2023-04-08T03:09:12;8.23;;;4.65;;
40635;SDS011;26642;55.766;37.828;2023-04-08T03:11:38;9.00;;;4.25;;
40635;SDS011;26642;55.766;37.828;2023-04-08T03:14:04;8.25;;;4.82;;
40635;SDS011;26642;55.766;37.828;2023-04-08T03:16:30;11.23;;;5.00;;
40635;SDS011;26642;55.766;37.828;2023-04-08T03:18:56;7.55;;;4.15;;
40635;SDS011;26642;55.766;37.828;2023-04-08T03:21:22;9.45;;;4.30;;
40635;SDS011;26642;55.766;37.828;2023-04-08T03:23:48;8.02;;;4.43;;
40635;SDS011;26642;55.766;37.828;2023-04-08T03:26:14;8.57;;;4.38;;
40635;SDS011;26642;55.766;37.828;2023-04-08T03:28:40;7.22;;;4.40;;
40635;SDS011;26642;55.766;37.828;2023-04-08T03:31:06;7.90;;;4.43;;
40635;SDS011;26642;55.766;37.828;2023-04-08T03:33:32;7.95;;;4.45;;
40635;SDS011;26642;55.766;37.828;2023-04-08T03:35:58;7.30;;;4.20;;
40635;SDS011;26642;55.766;37.828;2023-04-08T03:38:24;7.88;;;4.70;;
40635;SDS011;26642;55.766;37.828;2023-04-08T03:40:50;8.05;;;4.38;;
40635;SDS011;26642;55.766;37.828;2023-04-08T03:43:16;8.07;;;4.07;;
40635;SDS011;26642;55.766;37.828;2023-04-08T03:45:43;7.30;;;4.22;;
40635;SDS011;26642;55.766;37.828;2023-04-08T03:48:09;7.25;;;4.10;;
40635;SDS011;26642;55.766;37.828;2023-04-08T03:50:35;6.28;;;4.05;;
40635;SDS011;26642;55.766;37.828;2023-04-08T03:53:01;9.98;;;4.22;;
40635;SDS011;26642;55.766;37.828;2023-04-08T03:55:27;9.73;;;3.92;;
40635;SDS011;26642;55.766;37.828;2023-04-08T03:57:53;10.10;;;4.70;;
40635;SDS011;26642;55.766;37.828;2023-04-08T04:00:19;6.05;;;3.95;;
40635;SDS011;26642;55.766;37.828;2023-04-08T04:02:45;8.40;;;4.40;;
40635;SDS011;26642;55.766;37.828;2023-04-08T04:05:11;9.82;;;3.80;;
40635;SDS011;26642;55.766;37.828;2023-04-08T04:07:37;8.75;;;4.22;;
40635;SDS011;26642;55.766;37.828;2023-04-08T04:10:03;8.45;;;4.07;;
40635;SDS011;26642;55.766;37.828;2023-04-08T04:12:30;9.68;;;4.40;;
40635;SDS011;26642;55.766;37.828;2023-04-08T04:14:56;9.18;;;4.45;;
40635;SDS011;26642;55.766;37.828;2023-04-08T04:17:22;7.68;;;4.18;;
40635;SDS011;26642;55.766;37.828;2023-04-08T04:19:48;9.30;;;4.60;;
40635;SDS011;26642;55.766;37.828;2023-04-08T04:22:13;9.38;;;4.65;;
40635;SDS011;26642;55.766;37.828;2023-04-08T04:24:39;9.68;;;4.50;;
40635;SDS011;26642;55.766;37.828;2023-04-08T04:27:05;9.10;;;4.35;;
40635;SDS011;26642;55.766;37.828;2023-04-08T04:29:31;9.77;;;4.65;;
40635;SDS011;26642;55.766;37.828;2023-04-08T04:31:57;9.55;;;5.05;;
40635;SDS011;26642;55.766;37.828;2023-04-08T04:34:23;9.23;;;4.00;;
40635;SDS011;26642;55.766;37.828;2023-04-08T04:36:49;10.05;;;4.93;;
40635;SDS011;26642;55.766;37.828;2023-04-08T04:39:15;7.82;;;4.40;;
40635;SDS011;26642;55.766;37.828;2023-04-08T04:41:41;11.15;;;4.90;;
40635;SDS011;26642;55.766;37.828;2023-04-08T04:44:08;7.40;;;4.70;;
40635;SDS011;26642;55.766;37.828;2023-04-08T04:46:34;8.65;;;4.15;;
40635;SDS011;26642;55.766;37.828;2023-04-08T04:49:00;8.10;;;4.38;;
40635;SDS011;26642;55.766;37.828;2023-04-08T04:51:26;8.88;;;4.43;;
40635;SDS011;26642;55.766;37.828;2023-04-08T04:53:52;7.72;;;4.25;;
40635;SDS011;26642;55.766;37.828;2023-04-08T04:56:18;6.50;;;4.05;;
40635;SDS011;26642;55.766;37.828;2023-04-08T04:58:45;7.38;;;4.38;;
40635;SDS011;26642;55.766;37.828;2023-04-08T05:01:11;8.00;;;4.20;;
40635;SDS011;26642;55.766;37.828;2023-04-08T05:03:37;7.28;;;3.78;;
40635;SDS011;26642;55.766;37.828;2023-04-08T05:06:03;6.50;;;3.72;;
40635;SDS011;26642;55.766;37.828;2023-04-08T05:08:29;7.72;;;3.83;;
40635;SDS011;26642;55.766;37.828;2023-04-08T05:10:55;5.90;;;3.63;;
40635;SDS011;26642;55.766;37.828;2023-04-08T05:13:21;10.73;;;3.92;;
40635;SDS011;26642;55.766;37.828;2023-04-08T05:15:47;5.55;;;3.95;;
40635;SDS011;26642;55.766;37.828;2023-04-08T05:18:13;5.63;;;3.60;;
40635;SDS011;26642;55.766;37.828;2023-04-08T05:20:39;10.68;;;4.40;;
40635;SDS011;26642;55.766;37.828;2023-04-08T05:23:04;7.72;;;3.70;;
40635;SDS011;26642;55.766;37.828;2023-04-08T05:25:32;7.25;;;3.80;;
40635;SDS011;26642;55.766;37.828;2023-04-08T05:27:57;10.57;;;4.10;;
40635;SDS011;26642;55.766;37.828;2023-04-08T05:30:23;7.03;;;3.83;;
40635;SDS011;26642;55.766;37.828;2023-04-08T05:32:49;7.65;;;4.05;;
40635;SDS011;26642;55.766;37.828;2023-04-08T05:35:15;6.45;;;3.70;;
40635;SDS011;26642;55.766;37.828;2023-04-08T05:37:41;5.35;;;3.60;;
40635;SDS011;26642;55.766;37.828;2023-04-08T05:40:07;6.47;;;3.95;;
40635;SDS011;26642;55.766;37.828;2023-04-08T05:42:33;6.53;;;4.15;;
40635;SDS011;26642;55.766;37.828;2023-04-08T05:44:59;7.13;;;4.25;;
40635;SDS011;26642;55.766;37.828;2023-04-08T05:47:26;6.75;;;3.85;;
40635;SDS011;26642;55.766;37.828;2023-04-08T05:49:51;5.57;;;3.60;;
40635;SDS011;26642;55.766;37.828;2023-04-08T05:52:17;5.28;;;3.63;;
40635;SDS011;26642;55.766;37.828;2023-04-08T05:54:43;5.50;;;3.80;;
40635;SDS011;26642;55.766;37.828;2023-04-08T05:57:10;5.90;;;3.97;;
40635;SDS011;26642;55.766;37.828;2023-04-08T05:59:36;4.40;;;3.15;;
40635;SDS011;26642;55.766;37.828;2023-04-08T06:02:02;6.03;;;3.35;;
40635;SDS011;26642;55.766;37.828;2023-04-08T06:04:28;7.68;;;3.58;;
40635;SDS011;26642;55.766;37.828;2023-04-08T06:06:54;8.35;;;3.20;;
40635;SDS011;26642;55.766;37.828;2023-04-08T06:09:24;5.68;;;3.47;;
40635;SDS011;26642;55.766;37.828;2023-04-08T06:11:50;7.00;;;3.90;;
40635;SDS011;26642;55.766;37.828;2023-04-08T06:14:16;8.68;;;3.97;;
40635;SDS011;26642;55.766;37.828;2023-04-08T06:16:42;7.47;;;3.97;;
40635;SDS011;26642;55.766;37.828;2023-04-08T06:19:08;5.40;;;3.70;;
40635;SDS011;26642;55.766;37.828;2023-04-08T06:21:34;6.25;;;3.78;;
40635;SDS011;26642;55.766;37.828;2023-04-08T06:24:00;5.22;;;3.50;;
40635;SDS011;26642;55.766;37.828;2023-04-08T06:26:26;5.45;;;3.67;;
40635;SDS011;26642;55.766;37.828;2023-04-08T06:28:52;7.82;;;4.00;;
40635;SDS011;26642;55.766;37.828;2023-04-08T06:31:18;5.05;;;3.72;;
40635;SDS011;26642;55.766;37.828;2023-04-08T06:33:44;7.82;;;4.07;;
40635;SDS011;26642;55.766;37.828;2023-04-08T06:36:10;5.93;;;4.20;;
40635;SDS011;26642;55.766;37.828;2023-04-08T06:38:37;7.28;;;5.00;;
40635;SDS011;26642;55.766;37.828;2023-04-08T06:41:06;8.00;;;5.10;;
40635;SDS011;26642;55.766;37.828;2023-04-08T06:43:33;10.55;;;5.25;;
40635;SDS011;26642;55.766;37.828;2023-04-08T07:03:46;11.13;;;5.60;;
40635;SDS011;26642;55.766;37.828;2023-04-08T07:06:12;10.48;;;6.43;;
40635;SDS011;26642;55.766;37.828;2023-04-08T07:08:38;13.90;;;5.95;;
40635;SDS011;26642;55.766;37.828;2023-04-08T07:11:04;8.52;;;5.65;;
40635;SDS011;26642;55.766;37.828;2023-04-08T07:13:31;9.65;;;5.95;;
40635;SDS011;26642;55.766;37.828;2023-04-08T07:15:57;7.85;;;5.25;;
40635;SDS011;26642;55.766;37.828;2023-04-08T07:18:23;8.88;;;5.90;;
40635;SDS011;26642;55.766;37.828;2023-04-08T07:20:53;9.85;;;5.20;;
40635;SDS011;26642;55.766;37.828;2023-04-08T07:23:19;11.57;;;5.53;;
40635;SDS011;26642;55.766;37.828;2023-04-08T07:25:46;7.15;;;4.88;;
40635;SDS011;26642;55.766;37.828;2023-04-08T07:28:12;8.98;;;5.40;;
40635;SDS011;26642;55.766;37.828;2023-04-08T07:30:38;7.72;;;4.88;;
40635;SDS011;26642;55.766;37.828;2023-04-08T07:33:04;8.60;;;4.93;;
40635;SDS011;26642;55.766;37.828;2023-04-08T07:35:30;9.73;;;5.50;;
40635;SDS011;26642;55.766;37.828;2023-04-08T07:37:56;7.20;;;5.10;;
40635;SDS011;26642;55.766;37.828;2023-04-08T07:40:22;8.13;;;5.40;;
40635;SDS011;26642;55.766;37.828;2023-04-08T07:42:48;8.95;;;5.20;;
40635;SDS011;26642;55.766;37.828;2023-04-08T07:45:14;7.43;;;5.38;;
40635;SDS011;26642;55.766;37.828;2023-04-08T07:47:40;7.80;;;5.90;;
40635;SDS011;26642;55.766;37.828;2023-04-08T07:50:07;8.45;;;5.88;;
40635;SDS011;26642;55.766;37.828;2023-04-08T07:52:33;8.75;;;6.00;;
40635;SDS011;26642;55.766;37.828;2023-04-08T07:54:59;8.60;;;5.95;;
40635;SDS011;26642;55.766;37.828;2023-04-08T07:57:26;8.30;;;5.47;;
40635;SDS011;26642;55.766;37.828;2023-04-08T07:59:52;6.35;;;4.95;;
40635;SDS011;26642;55.766;37.828;2023-04-08T08:02:18;7.95;;;5.88;;
40635;SDS011;26642;55.766;37.828;2023-04-08T08:04:44;8.05;;;5.18;;
40635;SDS011;26642;55.766;37.828;2023-04-08T08:07:10;8.70;;;5.85;;
40635;SDS011;26642;55.766;37.828;2023-04-08T08:09:36;8.02;;;5.47;;
40635;SDS011;26642;55.766;37.828;2023-04-08T08:12:01;7.22;;;4.85;;
40635;SDS011;26642;55.766;37.828;2023-04-08T08:14:27;7.28;;;5.20;;
40635;SDS011;26642;55.766;37.828;2023-04-08T08:16:53;7.32;;;5.30;;
40635;SDS011;26642;55.766;37.828;2023-04-08T08:19:19;6.53;;;4.82;;
40635;SDS011;26642;55.766;37.828;2023-04-08T08:21:45;5.75;;;4.45;;
40635;SDS011;26642;55.766;37.828;2023-04-08T08:24:11;7.45;;;4.50;;
40635;SDS011;26642;55.766;37.828;2023-04-08T08:26:37;12.23;;;4.57;;
40635;SDS011;26642;55.766;37.828;2023-04-08T08:29:04;8.80;;;4.13;;
40635;SDS011;26642;55.766;37.828;2023-04-08T08:31:32;5.60;;;3.80;;
40635;SDS011;26642;55.766;37.828;2023-04-08T08:33:59;12.63;;;3.60;;
40635;SDS011;26642;55.766;37.828;2023-04-08T08:36:25;8.05;;;4.15;;
40635;SDS011;26642;55.766;37.828;2023-04-08T08:38:54;8.95;;;4.15;;
40635;SDS011;26642;55.766;37.828;2023-04-08T08:41:20;6.03;;;3.40;;
40635;SDS011;26642;55.766;37.828;2023-04-08T08:43:46;6.50;;;3.70;;
40635;SDS011;26642;55.766;37.828;2023-04-08T08:46:14;5.88;;;3.50;;
40635;SDS011;26642;55.766;37.828;2023-04-08T08:48:41;4.45;;;3.22;;
40635;SDS011;26642;55.766;37.828;2023-04-08T08:51:11;6.97;;;3.03;;
40635;SDS011;26642;55.766;37.828;2023-04-08T08:53:37;5.75;;;3.35;;
40635;SDS011;26642;55.766;37.828;2023-04-08T08:56:04;6.45;;;2.88;;
40635;SDS011;26642;55.766;37.828;2023-04-08T08:58:34;5.53;;;3.03;;
40635;SDS011;26642;55.766;37.828;2023-04-08T09:01:00;3.97;;;2.67;;
40635;SDS011;26642;55.766;37.828;2023-04-08T09:03:26;4.28;;;2.90;;
40635;SDS011;26642;55.766;37.828;2023-04-08T09:05:54;5.07;;;2.95;;
40635;SDS011;26642;55.766;37.828;2023-04-08T09:08:25;5.60;;;2.78;;
40635;SDS011;26642;55.766;37.828;2023-04-08T09:11:09;4.37;;;3.07;;
40635;SDS011;26642;55.766;37.828;2023-04-08T09:13:42;5.80;;;3.05;;
40635;SDS011;26642;55.766;37.828;2023-04-08T09:16:09;4.32;;;2.80;;
40635;SDS011;26642;55.766;37.828;2023-04-08T09:18:37;6.80;;;3.53;;
40635;SDS011;26642;55.766;37.828;2023-04-08T09:21:04;4.63;;;2.97;;
40635;SDS011;26642;55.766;37.828;2023-04-08T09:23:38;5.60;;;3.22;;
40635;SDS011;26642;55.766;37.828;2023-04-08T09:26:14;5.07;;;3.05;;
40635;SDS011;26642;55.766;37.828;2023-04-08T09:28:42;2.83;;;2.63;;
40635;SDS011;26642;55.766;37.828;2023-04-08T09:33:46;4.43;;;2.85;;
40635;SDS011;26642;55.766;37.828;2023-04-08T09:36:14;7.25;;;2.92;;
40635;SDS011;26642;55.766;37.828;2023-04-08T09:38:40;4.97;;;3.28;;
40635;SDS011;26642;55.766;37.828;2023-04-08T09:41:07;3.58;;;2.90;;
40635;SDS011;26642;55.766;37.828;2023-04-08T09:43:40;6.45;;;3.00;;
40635;SDS011;26642;55.766;37.828;2023-04-08T09:46:14;5.55;;;3.22;;
40635;SDS011;26642;55.766;37.828;2023-04-08T09:48:48;6.03;;;3.13;;
40635;SDS011;26642;55.766;37.828;2023-04-08T09:51:19;5.03;;;3.00;;
40635;SDS011;26642;55.766;37.828;2023-04-08T09:53:48;5.22;;;3.17;;
40635;SDS011;26642;55.766;37.828;2023-04-08T09:56:21;4.22;;;3.15;;
40635;SDS011;26642;55.766;37.828;2023-04-08T09:58:50;3.70;;;2.92;;
40635;SDS011;26642;55.766;37.828;2023-04-08T10:01:32;5.43;;;3.25;;
40635;SDS011;26642;55.766;37.828;2023-04-08T10:04:07;3.47;;;2.70;;
40635;SDS011;26642;55.766;37.828;2023-04-08T10:06:38;4.38;;;2.83;;
40635;SDS011;26642;55.766;37.828;2023-04-08T10:09:05;6.15;;;3.42;;
40635;SDS011;26642;55.766;37.828;2023-04-08T10:11:32;4.85;;;3.00;;
40635;SDS011;26642;55.766;37.828;2023-04-08T10:13:59;4.45;;;3.00;;
40635;SDS011;26642;55.766;37.828;2023-04-08T10:16:25;4.40;;;3.20;;
40635;SDS011;26642;55.766;37.828;2023-04-08T10:18:52;4.30;;;3.05;;
40635;SDS011;26642;55.766;37.828;2023-04-08T10:21:35;3.50;;;2.90;;
40635;SDS011;26642;55.766;37.828;2023-04-08T10:24:12;4.20;;;2.85;;
40635;SDS011;26642;55.766;37.828;2023-04-08T10:26:39;3.75;;;2.47;;
40635;SDS011;26642;55.766;37.828;2023-04-08T10:31:53;3.70;;;2.85;;
40635;SDS011;26642;55.766;37.828;2023-04-08T10:34:20;3.03;;;2.58;;
40635;SDS011;26642;55.766;37.828;2023-04-08T10:36:49;3.13;;;2.80;;
40635;SDS011;26642;55.766;37.828;2023-04-08T10:39:16;3.70;;;2.80;;
40635;SDS011;26642;55.766;37.828;2023-04-08T10:41:42;4.57;;;3.10;;
40635;SDS011;26642;55.766;37.828;2023-04-08T10:44:19;4.57;;;3.08;;
40635;SDS011;26642;55.766;37.828;2023-04-08T10:46:48;4.10;;;3.05;;
40635;SDS011;26642;55.766;37.828;2023-04-08T10:49:15;3.85;;;3.00;;
40635;SDS011;26642;55.766;37.828;2023-04-08T10:51:42;5.05;;;3.28;;
40635;SDS011;26642;55.766;37.828;2023-04-08T10:54:10;4.25;;;3.17;;
40635;SDS011;26642;55.766;37.828;2023-04-08T10:56:51;5.80;;;3.55;;
40635;SDS011;26642;55.766;37.828;2023-04-08T10:59:30;4.30;;;3.60;;
40635;SDS011;26642;55.766;37.828;2023-04-08T11:01:57;4.85;;;3.58;;
40635;SDS011;26642;55.766;37.828;2023-04-08T11:04:23;4.35;;;3.70;;
40635;SDS011;26642;55.766;37.828;2023-04-08T11:06:50;4.65;;;3.65;;
40635;SDS011;26642;55.766;37.828;2023-04-08T11:09:16;5.55;;;3.15;;
40635;SDS011;26642;55.766;37.828;2023-04-08T11:11:42;5.60;;;3.80;;
40635;SDS011;26642;55.766;37.828;2023-04-08T11:14:09;5.05;;;3.50;;
40635;SDS011;26642;55.766;37.828;2023-04-08T11:16:36;4.68;;;3.63;;
40635;SDS011;26642;55.766;37.828;2023-04-08T11:19:03;5.47;;;4.22;;
40635;SDS011;26642;55.766;37.828;2023-04-08T11:21:31;4.80;;;3.72;;
40635;SDS011;26642;55.766;37.828;2023-04-08T11:23:59;4.85;;;3.78;;
40635;SDS011;26642;55.766;37.828;2023-04-08T11:26:25;6.30;;;4.05;;
40635;SDS011;26642;55.766;37.828;2023-04-08T11:28:52;4.57;;;3.80;;
40635;SDS011;26642;55.766;37.828;2023-04-08T11:31:20;6.40;;;4.63;;
40635;SDS011;26642;55.766;37.828;2023-04-08T11:33:47;5.63;;;4.00;;
40635;SDS011;26642;55.766;37.828;2023-04-08T11:36:14;4.93;;;4.15;;
40635;SDS011;26642;55.766;37.828;2023-04-08T11:38:42;5.40;;;4.50;;
40635;SDS011;26642;55.766;37.828;2023-04-08T11:41:08;8.00;;;4.32;;
40635;SDS011;26642;55.766;37.828;2023-04-08T11:43:36;5.45;;;4.45;;
40635;SDS011;26642;55.766;37.828;2023-04-08T11:46:09;4.82;;;4.30;;
40635;SDS011;26642;55.766;37.828;2023-04-08T11:48:36;7.32;;;4.70;;
40635;SDS011;26642;55.766;37.828;2023-04-08T11:51:03;6.15;;;4.45;;
40635;SDS011;26642;55.766;37.828;2023-04-08T11:53:33;5.50;;;4.10;;
40635;SDS011;26642;55.766;37.828;2023-04-08T11:58:50;9.38;;;4.78;;
40635;SDS011;26642;55.766;37.828;2023-04-08T12:01:16;7.13;;;4.47;;
40635;SDS011;26642;55.766;37.828;2023-04-08T12:03:55;7.95;;;4.15;;
40635;SDS011;26642;55.766;37.828;2023-04-08T12:06:26;8.98;;;4.45;;
40635;SDS011;26642;55.766;37.828;2023-04-08T12:08:53;5.70;;;4.35;;
40635;SDS011;26642;55.766;37.828;2023-04-08T12:11:22;4.78;;;4.03;;
40635;SDS011;26642;55.766;37.828;2023-04-08T12:13:48;5.78;;;4.13;;
40635;SDS011;26642;55.766;37.828;2023-04-08T12:16:14;6.68;;;4.03;;
40635;SDS011;26642;55.766;37.828;2023-04-08T12:18:41;7.72;;;4.47;;
40635;SDS011;26642;55.766;37.828;2023-04-08T12:21:07;6.35;;;3.92;;
40635;SDS011;26642;55.766;37.828;2023-04-08T12:23:33;8.10;;;4.20;;
40635;SDS011;26642;55.766;37.828;2023-04-08T12:25:59;6.60;;;4.28;;
40635;SDS011;26642;55.766;37.828;2023-04-08T12:28:24;5.00;;;4.00;;
40635;SDS011;26642;55.766;37.828;2023-04-08T12:30:50;5.88;;;3.80;;
40635;SDS011;26642;55.766;37.828;2023-04-08T12:33:16;7.03;;;4.03;;
40635;SDS011;26642;55.766;37.828;2023-04-08T12:35:42;17.80;;;4.22;;
40635;SDS011;26642;55.766;37.828;2023-04-08T12:38:09;5.57;;;4.13;;
40635;SDS011;26642;55.766;37.828;2023-04-08T12:40:34;9.90;;;3.90;;
40635;SDS011;26642;55.766;37.828;2023-04-08T12:43:00;6.82;;;3.50;;
40635;SDS011;26642;55.766;37.828;2023-04-08T12:45:27;5.03;;;3.97;;
40635;SDS011;26642;55.766;37.828;2023-04-08T12:47:53;7.90;;;3.63;;
40635;SDS011;26642;55.766;37.828;2023-04-08T12:50:18;7.65;;;3.38;;
40635;SDS011;26642;55.766;37.828;2023-04-08T12:52:45;6.05;;;4.10;;
40635;SDS011;26642;55.766;37.828;2023-04-08T12:55:10;6.93;;;4.18;;
40635;SDS011;26642;55.766;37.828;2023-04-08T12:57:36;5.97;;;3.38;;
40635;SDS011;26642;55.766;37.828;2023-04-08T13:00:02;5.93;;;3.60;;
40635;SDS011;26642;55.766;37.828;2023-04-08T13:02:29;6.10;;;3.60;;
40635;SDS011;26642;55.766;37.828;2023-04-08T13:04:55;6.13;;;4.03;;
40635;SDS011;26642;55.766;37.828;2023-04-08T13:07:20;7.35;;;3.80;;
40635;SDS011;26642;55.766;37.828;2023-04-08T13:09:47;6.20;;;3.50;;
40635;SDS011;26642;55.766;37.828;2023-04-08T13:12:13;7.60;;;4.03;;
40635;SDS011;26642;55.766;37.828;2023-04-08T13:14:40;4.40;;;3.38;;
40635;SDS011;26642;55.766;37.828;2023-04-08T13:17:06;4.32;;;3.47;;
40635;SDS011;26642;55.766;37.828;2023-04-08T13:19:32;5.43;;;3.45;;
40635;SDS011;26642;55.766;37.828;2023-04-08T13:21:59;10.23;;;3.55;;
40635;SDS011;26642;55.766;37.828;2023-04-08T13:24:25;5.90;;;3.47;;
40635;SDS011;26642;55.766;37.828;2023-04-08T13:26:51;5.80;;;3.55;;
40635;SDS011;26642;55.766;37.828;2023-04-08T13:29:17;4.60;;;3.33;;
40635;SDS011;26642;55.766;37.828;2023-04-08T13:31:43;6.03;;;3.47;;
40635;SDS011;26642;55.766;37.828;2023-04-08T13:34:09;4.13;;;3.38;;
40635;SDS011;26642;55.766;37.828;2023-04-08T13:36:35;5.50;;;3.50;;
40635;SDS011;26642;55.766;37.828;2023-04-08T13:39:01;7.70;;;4.25;;
40635;SDS011;26642;55.766;37.828;2023-04-08T13:41:27;4.00;;;3.20;;
40635;SDS011;26642;55.766;37.828;2023-04-08T13:43:54;6.32;;;3.75;;
40635;SDS011;26642;55.766;37.828;2023-04-08T13:46:21;6.47;;;3.45;;
40635;SDS011;26642;55.766;37.828;2023-04-08T13:48:46;7.95;;;3.95;;
40635;SDS011;26642;55.766;37.828;2023-04-08T13:51:12;4.72;;;3.53;;
40635;SDS011;26642;55.766;37.828;2023-04-08T13:53:38;4.53;;;3.70;;
40635;SDS011;26642;55.766;37.828;2023-04-08T13:56:05;7.40;;;3.90;;
40635;SDS011;26642;55.766;37.828;2023-04-08T13:58:31;7.47;;;4.10;;
40635;SDS011;26642;55.766;37.828;2023-04-08T14:00:57;6.57;;;4.20;;
40635;SDS011;26642;55.766;37.828;2023-04-08T14:03:22;5.15;;;3.50;;
40635;SDS011;26642;55.766;37.828;2023-04-08T14:05:48;4.75;;;3.35;;
40635;SDS011;26642;55.766;37.828;2023-04-08T14:08:15;5.40;;;3.65;;
40635;SDS011;26642;55.766;37.828;2023-04-08T14:10:42;5.65;;;3.50;;
40635;SDS011;26642;55.766;37.828;2023-04-08T14:13:08;5.63;;;3.70;;
40635;SDS011;26642;55.766;37.828;2023-04-08T14:15:34;5.80;;;3.65;;
40635;SDS011;26642;55.766;37.828;2023-04-08T14:18:00;4.07;;;3.50;;
40635;SDS011;26642;55.766;37.828;2023-04-08T14:20:26;6.07;;;3.50;;
40635;SDS011;26642;55.766;37.828;2023-04-08T14:22:52;4.97;;;3.50;;
40635;SDS011;26642;55.766;37.828;2023-04-08T14:25:20;6.65;;;3.75;;
40635;SDS011;26642;55.766;37.828;2023-04-08T14:27:46;5.60;;;3.70;;
40635;SDS011;26642;55.766;37.828;2023-04-08T14:30:12;6.53;;;3.55;;
40635;SDS011;26642;55.766;37.828;2023-04-08T14:32:38;7.90;;;4.35;;
40635;SDS011;26642;55.766;37.828;2023-04-08T14:35:04;5.22;;;3.80;;
40635;SDS011;26642;55.766;37.828;2023-04-08T14:37:30;11.65;;;4.30;;
40635;SDS011;26642;55.766;37.828;2023-04-08T14:39:58;5.32;;;4.20;;
40635;SDS011;26642;55.766;37.828;2023-04-08T14:42:24;7.72;;;4.55;;
40635;SDS011;26642;55.766;37.828;2023-04-08T14:44:50;7.18;;;4.53;;
40635;SDS011;26642;55.766;37.828;2023-04-08T14:47:16;6.43;;;4.20;;
40635;SDS011;26642;55.766;37.828;2023-04-08T14:49:42;7.45;;;4.57;;
40635;SDS011;26642;55.766;37.828;2023-04-08T14:52:08;7.38;;;4.25;;
40635;SDS011;26642;55.766;37.828;2023-04-08T14:54:34;6.15;;;3.78;;
40635;SDS011;26642;55.766;37.828;2023-04-08T14:57:00;12.45;;;5.32;;
40635;SDS011;26642;55.766;37.828;2023-04-08T14:59:26;7.50;;;4.43;;
40635;SDS011;26642;55.766;37.828;2023-04-08T15:01:52;8.77;;;4.43;;
40635;SDS011;26642;55.766;37.828;2023-04-08T15:04:18;8.00;;;4.38;;